Terminal Aerodrome Forecast
Issued by NWS

Current Version | Previous Version | Text Only | Print | Product List | Glossary On
Versions: 1 2 3 4 5 6 7 8 9 10 11 12 13 14 15 16 17 18
235
FTUS41 KCAR 171120
TAFFVE
TAF
KFVE 171120Z 1712/1812 VRB02KT P6SM BKN018
     FM171500 17004KT P6SM BKN025
     FM172100 17004KT P6SM VCSH SCT030 BKN050
     FM180200 VRB02KT 2SM -SN OVC015
     FM180400 VRB02KT P6SM BKN040
     FM181100 VRB02KT P6SM BKN025=

USA.gov is the U.S. government's official web portal to all federal, state and local government web resources and services.